createdAt,value
2023-02-27T00:00:56.206Z,100.00
2023-02-27T00:03:42.954Z,100.00
2023-02-27T00:06:30.077Z,100.00
2023-02-27T00:09:17.966Z,100.00
2023-02-27T00:12:05.054Z,100.00
2023-02-27T00:14:52.050Z,100.00
2023-02-27T00:17:39.168Z,100.00
2023-02-27T00:20:26.194Z,100.00
2023-02-27T00:23:12.845Z,100.00
2023-02-27T00:26:01.180Z,100.00
2023-02-27T00:28:47.700Z,100.00
2023-02-27T00:31:35.797Z,100.00
2023-02-27T00:34:22.465Z,100.00
2023-02-27T00:37:09.182Z,100.00
2023-02-27T00:39:55.979Z,100.00
2023-02-27T00:42:46.288Z,100.00
2023-02-27T00:45:32.678Z,100.00
2023-02-27T00:48:20.643Z,100.00
2023-02-27T00:51:10.068Z,100.00
2023-02-27T00:54:03.996Z,100.00
2023-02-27T00:56:50.853Z,100.00
2023-02-27T00:59:38.815Z,100.00
2023-02-27T01:02:26.039Z,100.00
2023-02-27T01:05:15.642Z,100.00
2023-02-27T01:08:02.025Z,100.00
2023-02-27T01:10:49.188Z,100.00
2023-02-27T01:13:36.718Z,100.00
2023-02-27T01:16:25.605Z,100.00
2023-02-27T01:19:12.143Z,100.00
2023-02-27T01:21:58.983Z,100.00
2023-02-27T01:24:45.774Z,100.00
2023-02-27T01:27:33.485Z,100.00
2023-02-27T01:30:20.487Z,100.00
2023-02-27T01:33:08.891Z,100.00
2023-02-27T01:35:55.993Z,100.00
2023-02-27T01:38:42.535Z,100.00
2023-02-27T01:41:29.940Z,100.00
2023-02-27T01:44:16.568Z,100.00
2023-02-27T01:47:03.140Z,100.00
2023-02-27T01:49:52.653Z,100.00
2023-02-27T01:52:42.163Z,100.00
2023-02-27T01:55:32.469Z,100.00
2023-02-27T01:58:19.916Z,100.00
2023-02-27T02:01:08.657Z,100.00
2023-02-27T02:04:02.012Z,100.00
2023-02-27T02:07:06.840Z,100.00
2023-02-27T02:09:58.086Z,100.00
2023-02-27T02:12:47.340Z,100.00
2023-02-27T02:15:52.399Z,100.00
2023-02-27T02:18:51.549Z,100.00
2023-02-27T02:22:09.306Z,100.00
2023-02-27T02:25:29.786Z,100.00
2023-02-27T02:28:31.773Z,100.00
2023-02-27T02:31:45.945Z,100.00
2023-02-27T02:34:58.551Z,100.00
2023-02-27T02:38:18.159Z,100.00
2023-02-27T02:41:13.149Z,100.00
2023-02-27T02:44:07.214Z,100.00
2023-02-27T02:47:04.515Z,100.00
2023-02-27T02:49:58.654Z,100.00
2023-02-27T02:52:54.745Z,100.00
2023-02-27T02:55:46.871Z,100.00
2023-02-27T02:58:39.051Z,100.00
2023-02-27T03:01:31.685Z,100.00
2023-02-27T03:04:23.860Z,100.00
2023-02-27T03:07:15.617Z,100.00
2023-02-27T03:10:09.511Z,100.00
2023-02-27T03:13:02.890Z,100.00
2023-02-27T03:15:59.893Z,100.00
2023-02-27T03:18:55.150Z,100.00
2023-02-27T03:21:46.174Z,100.00
2023-02-27T03:24:38.243Z,100.00
2023-02-27T03:27:30.880Z,100.00
2023-02-27T03:30:24.488Z,100.00
2023-02-27T03:33:17.476Z,100.00
2023-02-27T03:36:10.720Z,100.00
2023-02-27T03:39:04.264Z,100.00
2023-02-27T03:42:00.982Z,100.00
2023-02-27T03:45:20.809Z,100.00
2023-02-27T03:48:09.184Z,100.00
2023-02-27T03:50:58.335Z,100.00
2023-02-27T03:53:50.783Z,100.00
2023-02-27T03:56:42.369Z,100.00
2023-02-27T03:59:31.997Z,100.00
2023-02-27T04:02:19.406Z,100.00
2023-02-27T04:05:06.428Z,100.00
2023-02-27T04:08:33.495Z,100.00
2023-02-27T04:11:41.239Z,100.00
2023-02-27T04:14:44.721Z,100.00
2023-02-27T04:17:34.445Z,100.00
2023-02-27T04:20:40.158Z,100.00
2023-02-27T04:23:37.038Z,100.00
2023-02-27T04:26:30.631Z,100.00
2023-02-27T04:29:21.134Z,100.00
2023-02-27T04:32:16.947Z,100.00
2023-02-27T04:35:11.010Z,100.00
2023-02-27T04:38:03.170Z,100.00
2023-02-27T04:40:55.201Z,100.00
2023-02-27T04:43:45.389Z,100.00
2023-02-27T04:46:35.021Z,100.00
2023-02-27T04:49:26.857Z,100.00
2023-02-27T04:52:18.584Z,100.00
2023-02-27T04:55:09.835Z,100.00
2023-02-27T04:58:03.080Z,100.00
2023-02-27T05:00:57.010Z,100.00
2023-02-27T05:03:48.671Z,100.00
2023-02-27T05:06:39.152Z,100.00
2023-02-27T05:09:35.184Z,100.00
2023-02-27T05:12:26.938Z,100.00
2023-02-27T05:15:20.117Z,100.00
2023-02-27T05:18:09.460Z,100.00
2023-02-27T05:21:05.300Z,100.00
2023-02-27T05:24:02.218Z,100.00
2023-02-27T05:27:07.444Z,100.00
2023-02-27T05:29:57.510Z,100.00
2023-02-27T05:32:50.568Z,100.00
2023-02-27T05:35:43.995Z,100.00
2023-02-27T05:38:35.717Z,100.00
2023-02-27T05:41:27.757Z,100.00
2023-02-27T05:44:18.508Z,100.00
2023-02-27T05:47:10.565Z,100.00
2023-02-27T05:50:03.126Z,100.00
2023-02-27T05:52:52.721Z,100.00
2023-02-27T05:55:42.790Z,100.00
2023-02-27T05:58:33.809Z,100.00
2023-02-27T06:01:20.820Z,100.00
2023-02-27T06:04:07.750Z,100.00
2023-02-27T06:06:57.239Z,100.00
2023-02-27T06:09:45.163Z,100.00
2023-02-27T06:12:31.669Z,100.00
2023-02-27T06:15:19.716Z,100.00
2023-02-27T06:18:06.605Z,100.00
2023-02-27T06:20:53.364Z,100.00
2023-02-27T06:23:41.549Z,100.00
2023-02-27T06:26:28.631Z,100.00
2023-02-27T06:29:15.545Z,100.00
2023-02-27T06:32:02.357Z,100.00
2023-02-27T06:34:49.102Z,100.00
2023-02-27T06:37:36.004Z,100.00
2023-02-27T06:40:24.722Z,100.00
2023-02-27T06:43:11.565Z,100.00
2023-02-27T06:45:58.041Z,100.00
2023-02-27T06:48:45.656Z,100.00
2023-02-27T06:51:32.833Z,100.00
2023-02-27T06:54:19.261Z,100.00
2023-02-27T06:57:07.601Z,100.00
2023-02-27T06:59:54.340Z,100.00
2023-02-27T07:02:41.273Z,100.00
2023-02-27T07:05:27.722Z,100.00
2023-02-27T07:08:17.773Z,100.00
2023-02-27T07:11:04.719Z,100.00
2023-02-27T07:13:52.800Z,100.00
2023-02-27T07:16:39.709Z,100.00
2023-02-27T07:19:27.015Z,100.00
2023-02-27T07:22:13.967Z,100.00
2023-02-27T07:25:00.735Z,100.00
2023-02-27T07:27:49.795Z,100.00
2023-02-27T07:30:37.702Z,100.00
2023-02-27T07:33:24.159Z,100.00
2023-02-27T07:36:11.271Z,100.00
2023-02-27T07:38:58.505Z,100.00
2023-02-27T07:41:44.968Z,100.00
2023-02-27T07:44:36.678Z,100.00
2023-02-27T07:47:24.762Z,100.00
2023-02-27T07:50:14.121Z,100.00
2023-02-27T07:53:00.965Z,99.19
2023-02-27T07:55:47.903Z,100.00
2023-02-27T07:58:34.530Z,100.00
2023-02-27T08:01:21.277Z,100.00
2023-02-27T08:04:09.477Z,98.25
2023-02-27T08:06:56.378Z,99.59
2023-02-27T08:09:43.272Z,99.19
2023-02-27T08:12:29.906Z,96.76
2023-02-27T08:15:17.660Z,98.51
2023-02-27T08:18:04.194Z,98.77
2023-02-27T08:20:52.440Z,95.94
2023-02-27T08:23:39.355Z,99.45
2023-02-27T08:26:27.009Z,99.10
2023-02-27T08:29:15.151Z,97.87
2023-02-27T08:32:04.916Z,99.55
2023-02-27T08:34:51.622Z,100.00
2023-02-27T08:37:39.773Z,100.00
2023-02-27T08:40:26.575Z,100.00
2023-02-27T08:43:13.403Z,97.78
2023-02-27T08:46:00.238Z,98.56
2023-02-27T08:48:47.067Z,99.45
2023-02-27T08:51:33.811Z,97.51
2023-02-27T08:54:22.139Z,96.38
2023-02-27T08:57:09.528Z,96.11
2023-02-27T08:59:57.729Z,95.94
2023-02-27T09:02:46.597Z,95.67
2023-02-27T09:05:35.778Z,97.63
2023-02-27T09:08:25.607Z,95.25
2023-02-27T09:11:15.006Z,93.87
2023-02-27T09:14:02.051Z,92.66
2023-02-27T09:16:48.697Z,92.60
2023-02-27T09:19:36.257Z,92.75
2023-02-27T09:22:22.872Z,96.07
2023-02-27T09:25:10.522Z,97.23
2023-02-27T09:27:59.221Z,97.00
2023-02-27T09:30:45.713Z,95.24
2023-02-27T09:33:33.034Z,93.93
2023-02-27T09:36:19.858Z,92.23
2023-02-27T09:39:06.690Z,89.65
2023-02-27T09:41:58.874Z,90.59
2023-02-27T09:44:48.766Z,90.19
2023-02-27T09:47:39.245Z,89.80
2023-02-27T09:50:37.216Z,93.33
2023-02-27T09:53:27.151Z,91.06
2023-02-27T09:56:21.257Z,87.91
2023-02-27T09:59:19.756Z,88.13
2023-02-27T10:02:21.782Z,87.64
2023-02-27T10:05:20.507Z,85.88
2023-02-27T10:08:16.396Z,86.66
2023-02-27T10:11:06.116Z,82.87
2023-02-27T10:14:04.120Z,83.03
2023-02-27T10:16:53.611Z,85.11
2023-02-27T10:19:45.085Z,83.74
2023-02-27T10:22:36.600Z,82.20
2023-02-27T10:25:31.650Z,78.94
2023-02-27T10:28:21.058Z,80.43
2023-02-27T10:31:18.191Z,79.23
2023-02-27T10:34:06.004Z,76.12
2023-02-27T10:36:54.792Z,75.17
2023-02-27T10:39:47.436Z,72.35
2023-02-27T10:42:37.512Z,73.12
2023-02-27T10:45:24.321Z,71.70
2023-02-27T10:48:11.080Z,70.97
2023-02-27T10:51:22.915Z,70.05
2023-02-27T10:54:18.263Z,69.23
2023-02-27T10:57:19.274Z,69.81
2023-02-27T11:00:09.786Z,62.13
2023-02-27T11:02:56.559Z,59.73
2023-02-27T11:05:44.021Z,60.56
2023-02-27T11:08:34.649Z,62.02
2023-02-27T11:11:29.570Z,62.79
2023-02-27T11:14:28.027Z,61.70
2023-02-27T11:17:23.927Z,62.64
2023-02-27T11:20:35.582Z,65.90
2023-02-27T11:23:24.287Z,62.29
2023-02-27T11:26:17.332Z,63.32
2023-02-27T11:29:15.204Z,63.54
2023-02-27T11:32:06.327Z,57.46
2023-02-27T11:34:54.032Z,56.44
2023-02-27T11:37:41.996Z,58.71
2023-02-27T11:40:33.049Z,58.37
2023-02-27T11:43:22.865Z,56.01
2023-02-27T11:46:26.051Z,49.42
2023-02-27T11:49:31.365Z,51.29
2023-02-27T11:52:28.892Z,51.83
2023-02-27T11:55:19.079Z,50.17
2023-02-27T11:58:13.108Z,50.25
2023-02-27T12:01:05.091Z,53.44
2023-02-27T12:03:57.616Z,50.71
2023-02-27T12:06:52.094Z,49.33
2023-02-27T12:09:45.532Z,48.51
2023-02-27T12:12:38.009Z,53.24
2023-02-27T12:15:31.705Z,50.25
2023-02-27T12:18:24.728Z,49.02
2023-02-27T12:21:14.487Z,45.92
2023-02-27T12:24:08.101Z,48.27
2023-02-27T12:27:07.496Z,48.17
2023-02-27T12:30:00.310Z,47.76
2023-02-27T12:32:53.902Z,45.93
2023-02-27T12:35:45.764Z,51.74
2023-02-27T12:38:34.647Z,49.78
2023-02-27T12:41:37.132Z,51.73
2023-02-27T12:44:37.378Z,50.28
2023-02-27T12:47:37.307Z,49.14
2023-02-27T12:50:25.755Z,51.48
2023-02-27T12:53:30.364Z,48.29
2023-02-27T12:56:20.205Z,49.98
2023-02-27T12:59:19.918Z,49.65
2023-02-27T13:02:25.382Z,50.72
2023-02-27T13:05:29.345Z,48.30
2023-02-27T13:08:43.328Z,47.84
2023-02-27T13:11:43.885Z,49.74
2023-02-27T13:14:39.421Z,48.56
2023-02-27T13:17:32.707Z,47.87
2023-02-27T13:20:33.535Z,49.40
2023-02-27T13:23:27.791Z,50.54
2023-02-27T13:26:19.974Z,49.73
2023-02-27T13:29:07.983Z,51.68
2023-02-27T13:32:00.503Z,49.76
2023-02-27T13:34:50.318Z,51.91
2023-02-27T13:37:55.115Z,51.29
2023-02-27T13:40:43.419Z,50.25
2023-02-27T13:43:46.460Z,52.51
2023-02-27T13:46:38.236Z,51.32
2023-02-27T13:49:29.525Z,49.73
2023-02-27T13:52:29.993Z,50.99
2023-02-27T13:55:28.574Z,52.28
2023-02-27T13:58:25.815Z,51.31
2023-02-27T14:01:18.310Z,50.41
2023-02-27T14:04:08.693Z,47.66
2023-02-27T14:07:01.028Z,43.91
2023-02-27T14:09:50.716Z,45.02
2023-02-27T14:12:45.521Z,45.40
2023-02-27T14:16:01.063Z,46.20
2023-02-27T14:18:57.299Z,47.07
2023-02-27T14:21:55.884Z,47.64
2023-02-27T14:25:01.562Z,47.67
2023-02-27T14:27:54.655Z,46.82
2023-02-27T14:30:46.736Z,46.46
2023-02-27T14:33:41.905Z,45.87
2023-02-27T14:36:31.319Z,46.75
2023-02-27T14:39:23.626Z,46.22
2023-02-27T14:42:30.911Z,46.62
2023-02-27T14:45:24.243Z,46.06
2023-02-27T14:48:11.878Z,48.97
2023-02-27T14:51:02.886Z,47.99
2023-02-27T14:54:01.867Z,50.20
2023-02-27T14:56:56.210Z,48.29
2023-02-27T14:59:45.165Z,50.44
2023-02-27T15:02:36.723Z,49.84
2023-02-27T15:05:31.287Z,52.75
2023-02-27T15:08:23.908Z,53.61
2023-02-27T15:11:16.251Z,54.54
2023-02-27T15:14:04.630Z,54.75
2023-02-27T15:16:55.871Z,55.93
2023-02-27T15:19:48.225Z,54.06
2023-02-27T15:22:40.211Z,55.18
2023-02-27T15:25:31.009Z,54.33
2023-02-27T15:28:23.598Z,55.29
2023-02-27T15:31:18.871Z,56.57
2023-02-27T15:34:05.459Z,57.25
2023-02-27T15:36:54.621Z,55.21
2023-02-27T15:39:41.381Z,55.53
2023-02-27T15:42:32.915Z,56.48
2023-02-27T15:45:21.269Z,56.32
2023-02-27T15:48:08.344Z,57.37
2023-02-27T15:50:58.151Z,58.06
2023-02-27T15:53:50.512Z,55.07
2023-02-27T15:56:40.129Z,58.78
2023-02-27T15:59:31.039Z,58.99
2023-02-27T16:02:21.772Z,59.52
2023-02-27T16:05:17.236Z,59.58
2023-02-27T16:08:04.593Z,61.78
2023-02-27T16:10:52.089Z,63.23
2023-02-27T16:13:40.747Z,62.94
2023-02-27T16:16:35.176Z,64.38
2023-02-27T16:19:27.438Z,67.16
2023-02-27T16:22:16.286Z,66.41
2023-02-27T16:25:11.235Z,67.23
2023-02-27T16:27:57.877Z,69.26
2023-02-27T16:30:44.768Z,68.95
2023-02-27T16:33:36.757Z,68.43
2023-02-27T16:36:25.640Z,68.12
2023-02-27T16:39:13.527Z,71.10
2023-02-27T16:42:05.903Z,73.54
2023-02-27T16:45:00.382Z,75.62
2023-02-27T16:47:57.420Z,76.60
2023-02-27T16:50:48.039Z,77.50
2023-02-27T16:53:34.843Z,78.92
2023-02-27T16:56:35.859Z,80.03
2023-02-27T16:59:33.487Z,78.64
2023-02-27T17:02:20.032Z,79.40
2023-02-27T17:05:08.349Z,79.19
2023-02-27T17:07:56.528Z,78.54
2023-02-27T17:10:43.151Z,78.09
2023-02-27T17:13:30.094Z,76.81
2023-02-27T17:16:17.227Z,74.89
2023-02-27T17:19:03.583Z,75.39
2023-02-27T17:21:50.666Z,77.00
2023-02-27T17:24:39.034Z,77.73
2023-02-27T17:27:25.995Z,77.24
2023-02-27T17:30:14.169Z,77.01
2023-02-27T17:33:03.812Z,80.10
2023-02-27T17:36:12.897Z,80.36
2023-02-27T17:39:04.861Z,81.45
2023-02-27T17:41:54.519Z,79.88
2023-02-27T17:44:41.610Z,80.89
2023-02-27T17:47:29.632Z,80.20
2023-02-27T17:50:16.065Z,81.42
2023-02-27T17:53:03.611Z,80.69
2023-02-27T17:55:54.967Z,80.35
2023-02-27T17:58:45.562Z,80.82
2023-02-27T18:01:32.274Z,81.38
2023-02-27T18:04:19.007Z,82.24
2023-02-27T18:07:06.013Z,80.51
2023-02-27T18:09:54.843Z,81.66
2023-02-27T18:12:41.527Z,79.35
2023-02-27T18:15:29.720Z,80.85
2023-02-27T18:18:16.602Z,81.25
2023-02-27T18:21:05.496Z,82.57
2023-02-27T18:23:53.209Z,82.76
2023-02-27T18:26:40.824Z,82.82
2023-02-27T18:29:27.430Z,82.79
2023-02-27T18:32:15.676Z,82.98
2023-02-27T18:35:02.358Z,83.44
2023-02-27T18:37:49.180Z,84.46
2023-02-27T18:40:36.035Z,85.19
2023-02-27T18:43:22.641Z,85.34
2023-02-27T18:46:10.680Z,85.42
2023-02-27T18:49:00.248Z,86.90
2023-02-27T18:51:47.397Z,86.14
2023-02-27T18:54:34.214Z,85.27
2023-02-27T18:57:21.234Z,86.31
2023-02-27T19:00:09.604Z,87.89
2023-02-27T19:02:56.363Z,88.49
2023-02-27T19:05:44.612Z,88.30
2023-02-27T19:08:31.688Z,87.79
2023-02-27T19:11:33.141Z,87.62
2023-02-27T19:14:19.847Z,89.00
2023-02-27T19:17:07.421Z,89.59
2023-02-27T19:19:57.693Z,89.97
2023-02-27T19:22:45.617Z,91.28
2023-02-27T19:25:38.072Z,91.15
2023-02-27T19:28:25.418Z,91.64
2023-02-27T19:31:13.987Z,92.15
2023-02-27T19:34:01.138Z,92.29
2023-02-27T19:36:47.908Z,90.28
2023-02-27T19:39:45.940Z,89.76
2023-02-27T19:42:33.413Z,91.32
2023-02-27T19:45:20.435Z,91.85
2023-02-27T19:48:08.115Z,93.34
2023-02-27T19:50:54.638Z,94.97
2023-02-27T19:53:43.348Z,95.48
2023-02-27T19:56:37.572Z,94.90
2023-02-27T19:59:24.916Z,95.72
2023-02-27T20:02:11.810Z,96.32
2023-02-27T20:04:58.392Z,95.16
2023-02-27T20:07:46.884Z,94.52
2023-02-27T20:10:33.560Z,95.20
2023-02-27T20:13:21.717Z,95.97
2023-02-27T20:16:10.009Z,95.77
2023-02-27T20:18:57.002Z,96.72
2023-02-27T20:21:43.575Z,96.13
2023-02-27T20:24:30.378Z,95.15
2023-02-27T20:27:17.111Z,96.03
2023-02-27T20:30:06.212Z,96.44
2023-02-27T20:32:55.177Z,97.44
2023-02-27T20:35:42.151Z,97.26
2023-02-27T20:38:29.991Z,97.26
2023-02-27T20:41:19.695Z,97.87
2023-02-27T20:44:08.255Z,97.92
2023-02-27T20:46:56.737Z,97.73
2023-02-27T20:49:43.263Z,97.49
2023-02-27T20:52:30.078Z,97.21
2023-02-27T20:55:16.869Z,97.09
2023-02-27T20:58:03.534Z,97.66
2023-02-27T21:00:50.473Z,98.49
2023-02-27T21:03:40.308Z,98.52
2023-02-27T21:06:27.119Z,98.82
2023-02-27T21:09:13.609Z,99.27
2023-02-27T21:12:00.426Z,99.31
2023-02-27T21:14:49.391Z,99.05
2023-02-27T21:17:35.895Z,99.21
2023-02-27T21:20:23.832Z,99.26
2023-02-27T21:23:11.285Z,98.86
2023-02-27T21:25:58.404Z,98.80
2023-02-27T21:28:47.903Z,99.68
2023-02-27T21:31:35.465Z,99.94
2023-02-27T21:34:24.560Z,100.00
2023-02-27T21:37:12.871Z,100.00
2023-02-27T21:40:01.889Z,99.50
2023-02-27T21:42:48.540Z,100.00
2023-02-27T21:45:38.724Z,99.21
2023-02-27T21:48:25.428Z,100.00
2023-02-27T21:51:12.682Z,100.00
2023-02-27T21:54:02.619Z,100.00
2023-02-27T21:56:50.467Z,100.00
2023-02-27T21:59:37.465Z,100.00
2023-02-27T22:02:26.978Z,100.00
2023-02-27T22:05:13.501Z,100.00
2023-02-27T22:08:00.444Z,100.00
2023-02-27T22:10:48.547Z,100.00
2023-02-27T22:13:36.058Z,100.00
2023-02-27T22:16:23.006Z,100.00
2023-02-27T22:19:11.258Z,100.00
2023-02-27T22:21:58.030Z,100.00
2023-02-27T22:24:44.847Z,100.00
2023-02-27T22:27:33.104Z,100.00
2023-02-27T22:30:20.033Z,100.00
2023-02-27T22:33:06.463Z,100.00
2023-02-27T22:35:53.302Z,100.00
2023-02-27T22:38:40.474Z,100.00
2023-02-27T22:41:30.722Z,100.00
2023-02-27T22:44:19.038Z,100.00
2023-02-27T22:47:05.763Z,100.00
2023-02-27T22:49:52.628Z,100.00
2023-02-27T22:52:39.202Z,100.00
2023-02-27T22:55:25.873Z,100.00
2023-02-27T22:58:12.619Z,100.00
2023-02-27T23:01:01.767Z,100.00
2023-02-27T23:03:52.212Z,100.00
2023-02-27T23:06:40.405Z,100.00
2023-02-27T23:09:27.565Z,100.00
2023-02-27T23:12:14.346Z,100.00
2023-02-27T23:15:03.216Z,100.00
2023-02-27T23:17:57.804Z,100.00
2023-02-27T23:20:47.253Z,100.00
2023-02-27T23:23:35.519Z,100.00
2023-02-27T23:26:23.005Z,100.00
2023-02-27T23:29:10.180Z,100.00
2023-02-27T23:31:56.677Z,100.00
2023-02-27T23:34:49.681Z,100.00
2023-02-27T23:37:36.353Z,100.00
2023-02-27T23:40:25.072Z,100.00
2023-02-27T23:43:29.535Z,100.00
2023-02-27T23:46:17.226Z,100.00
2023-02-27T23:49:04.706Z,100.00
2023-02-27T23:51:52.708Z,100.00
2023-02-27T23:54:39.287Z,100.00
2023-02-27T23:57:25.975Z,100.00
